• Join FlightAware (Why Join?)
  • Login
  • US Flag 
07:42PM EDT


 

Airport Tracker/Info


-or-


 

Live Flight TrackerFlight Track Log ✈ DAL1941 ✈ 24-Dec-2013 ✈ KMHT - KATL

Flight Track Log - Related Links

Times and Time Zones

All times are in EST time to prevent confusion due to time zone crossing. See the DAL1941 flight status page for this flight to view local times or setup timezone preferences in your user account.

Time Position Orientation Groundspeed Altitude Reporting Facility
EST Latitude Longitude Course Direction KTS MPH feet Rate Location/Type
07:27AM 42.9500 -71.4167 200° South 168 193 1,400  Level KA90
07:28AM 42.9833 -71.3833 36° Northeast 211 243 2,800 2,580 Climbing KA90
07:30AM 42.7557 -71.7421 144° Southeast  Level Estimated
07:30AM 43.0369 -71.2619 59° Northeast 279 321 7,300  Level Boston Center
07:31AM 42.6965 -71.8438 202° Southwest  Level Estimated
07:31AM 43.0536 -71.1519 78° East 294 338 10,200  Level Boston Center
07:32AM 42.7164 -71.7169 78° East  Level FlightAware Approximate
07:32AM 43.0797 -71.0281 74° East 340 391 12,100  Level Boston Center
07:33AM 42.6574 -71.8189 200° South  Level Estimated
07:33AM 43.0306 -70.9181 121° Southeast 360 414 14,000  Level Boston Center
07:34AM 42.9533 -70.8983 169° South 271 312 17,500 1,800 Climbing Boston Center
07:35AM 42.8750 -70.9381 200° South 281 323 17,700 900 Climbing Boston Center
07:36AM 42.8036 -70.9722 199° South 310 357 19,400 1,800 Climbing Boston Center
07:37AM 42.7225 -71.0114 200° South 311 358 21,500 1,860 Climbing Boston Center
07:38AM 42.6428 -71.0494 199° South 305 351 23,200 1,380 Climbing Boston Center
07:39AM 42.5669 -71.0997 206° Southwest 315 362 24,300 1,140 Climbing Boston Center
07:40AM 42.5133 -71.2261 240° Southwest 327 376 25,600 1,320 Climbing Boston Center
07:41AM 42.4719 -71.3389 244° Southwest 334 384 27,000 1,080 Climbing Boston Center
07:42AM 42.4289 -71.4472 242° Southwest 330 380 27,900 480 Climbing Boston Center
07:43AM 42.3858 -71.5531 241° Southwest 325 374 28,000  Climbing Boston Center
07:44AM 42.3475 -71.6500 242° Southwest 326 375 28,000  Level Boston Center
07:45AM 42.3036 -71.7581 241° Southwest 329 379 28,000  Level Boston Center
07:46AM 42.2611 -71.8661 242° Southwest 326 375 28,000  Level Boston Center
07:47AM 42.2186 -71.9747 242° Southwest 326 375 28,000  Level Boston Center
07:48AM 42.1667 -72.1022 241° Southwest 324 373 28,000  Level Boston Center
07:49AM 42.1231 -72.2078 241° Southwest 323 372 28,000  Level Boston Center
07:50AM 42.0794 -72.3136 241° Southwest 323 372 28,000  Level Boston Center
07:51AM 42.0353 -72.4200 241° Southwest 324 373 28,000  Level Boston Center
07:52AM 41.9919 -72.5256 241° Southwest 323 372 28,000  Level Boston Center
07:53AM 41.9472 -72.6300 240° Southwest 323 372 28,000  Level Boston Center
07:54AM 41.9039 -72.7356 241° Southwest 323 372 28,000  Level Boston Center
07:55AM 41.8597 -72.8417 241° Southwest 326 375 28,000  Level Boston Center
07:56AM 41.8150 -72.9472 240° Southwest 326 375 28,000  Level Boston Center
07:57AM 41.7717 -73.0522 241° Southwest 324 373 28,000  Level Boston Center
07:58AM 41.7275 -73.1572 241° Southwest 323 372 28,000  Level Boston Center
07:59AM 41.6836 -73.2628 241° Southwest 326 375 28,000  Level Boston Center
08:00AM 41.6344 -73.3614 236° Southwest 322 371 28,000  Level Boston Center
08:01AM 41.5758 -73.4489 228° Southwest 318 366 28,000  Level Boston Center
08:02AM 41.5158 -73.5408 229° Southwest 317 365 28,000  Level Boston Center
08:03AM 41.4583 -73.6275 228° Southwest 314 361 28,000  Level Boston Center
08:04AM 41.4236 -73.6844 231° Southwest 319 367 28,000  Level New York Center
08:05AM 41.3672 -73.7706 229° Southwest 319 367 28,000  Level New York Center
08:06AM 41.3108 -73.8564 229° Southwest 319 367 28,000  Level New York Center
08:07AM 41.2522 -73.9419 228° Southwest 319 367 28,000  Level New York Center
08:08AM 41.1917 -74.0272 227° Southwest 319 367 28,000  Level New York Center
08:09AM 41.1331 -74.1100 227° Southwest 319 367 28,000  Level New York Center
08:10AM 41.0700 -74.2031 228° Southwest 319 367 28,000  Level New York Center
08:11AM 41.0172 -74.2967 233° Southwest 319 367 28,000  Level New York Center
08:12AM 40.9606 -74.3844 229° Southwest 319 367 28,000  Level New York Center
08:13AM 40.9056 -74.4747 231° Southwest 319 367 28,000  Level New York Center
08:14AM 40.8528 -74.5625 232° Southwest 319 367 28,000  Level New York Center
08:15AM 40.7958 -74.6497 229° Southwest 319 367 28,000 -60 Level New York Center
08:16AM 40.7428 -74.7369 231° Southwest 319 367 27,900  Descending New York Center
08:17AM 40.6967 -74.8136 232° Southwest 299 344 28,000  Climbing New York Center
08:18AM 40.6478 -74.8958 232° Southwest 292 336 28,000  Level New York Center
08:19AM 40.5994 -74.9667 228° Southwest 287 330 28,000  Level New York Center
08:20AM 40.5531 -75.0431 231° Southwest 280 322 28,000  Level New York Center
08:21AM 40.5000 -75.1242 229° Southwest 280 322 28,000  Level New York Center
08:22AM 40.4444 -75.2161 232° Southwest 305 351 28,000  Level New York Center
08:23AM 40.3889 -75.3081 232° Southwest 316 364 28,000  Level New York Center
08:24AM 40.3356 -75.3972 232° Southwest 316 364 28,000  Level New York Center
08:25AM 40.2797 -75.4858 230° Southwest 316 364 28,000  Level New York Center
08:26AM 40.2261 -75.5747 232° Southwest 316 364 28,000  Level New York Center
08:27AM 40.1747 -75.6581 231° Southwest 316 364 28,000  Level New York Center
08:28AM 40.1211 -75.7467 232° Southwest 316 364 28,000  Level New York Center
08:29AM 40.0653 -75.8347 230° Southwest 316 364 28,000  Level New York Center
08:30AM 40.0094 -75.9228 230° Southwest 311 358 28,000  Level New York Center
08:31AM 39.9511 -76.0133 230° Southwest 317 365 28,000  Level New York Center
08:32AM 39.8950 -76.1011 230° Southwest 317 365 28,000  Level New York Center
08:34AM 39.7825 -76.2828 231° Southwest 307 353 28,000  Level Washington Center
08:35AM 39.7258 -76.3686 229° Southwest 307 353 28,000  Level Washington Center
08:36AM 39.6689 -76.4569 230° Southwest 313 360 28,000  Level Washington Center
08:37AM 39.6078 -76.5450 228° Southwest 320 368 28,000  Level Washington Center
08:38AM 39.5508 -76.6358 231° Southwest 331 381 28,000  Level Washington Center
08:39AM 39.4958 -76.7264 232° Southwest 331 381 28,000  Level Washington Center
08:40AM 39.4386 -76.8117 229° Southwest 331 381 28,000  Level Washington Center
08:41AM 39.3836 -76.8992 231° Southwest 326 375 28,000  Level Washington Center
08:42AM 39.3242 -76.9867 229° Southwest 326 375 28,000  Level Washington Center
08:43AM 39.2692 -77.0714 230° Southwest 326 375 28,000  Level Washington Center
08:44AM 39.2117 -77.1614 231° Southwest 326 375 28,000  Level Washington Center
08:45AM 39.1542 -77.2483 230° Southwest 326 375 28,000  Level Washington Center
08:46AM 39.0989 -77.3328 230° Southwest 321 369 28,000  Level Washington Center
08:47AM 39.0414 -77.4197 230° Southwest 321 369 28,000  Level Washington Center
08:48AM 38.9858 -77.5064 231° Southwest 321 369 28,000  Level Washington Center
08:49AM 38.9281 -77.5956 230° Southwest 321 369 28,000  Level Washington Center
08:50AM 38.8831 -77.6611 229° Southwest 321 369 28,000  Level Washington Center
08:51AM 38.8208 -77.7578 230° Southwest 321 369 28,000  Level Washington Center
08:52AM 38.7589 -77.8467 228° Southwest 327 376 28,000  Level Washington Center
08:53AM 38.7031 -77.9325 230° Southwest 327 376 28,000  Level Washington Center
08:54AM 38.6450 -78.0186 229° Southwest 327 376 28,000  Level Washington Center
08:55AM 38.5869 -78.1042 229° Southwest 327 376 28,000  Level Washington Center
08:56AM 38.5289 -78.1925 230° Southwest 327 376 28,000  Level Washington Center
08:57AM 38.4706 -78.2781 229° Southwest 327 376 28,000  Level Washington Center
08:58AM 38.4122 -78.3661 230° Southwest 322 371 28,000  Level Washington Center
08:59AM 38.3539 -78.4511 229° Southwest 322 371 28,000  Level Washington Center
09:00AM 38.2936 -78.5389 229° Southwest 322 371 28,000  Level Washington Center
09:01AM 38.2392 -78.6292 232° Southwest 322 371 28,000  Level Washington Center
09:02AM 38.1786 -78.7167 229° Southwest 328 377 28,000  Level Washington Center
09:03AM 38.1092 -78.8167 229° Southwest 334 384 28,000  Level Washington Center
09:04AM 38.0483 -78.9036 228° Southwest 342 394 28,000  Level Washington Center
09:05AM 37.9875 -78.9933 229° Southwest 342 394 28,000  Level Washington Center
09:06AM 37.9242 -79.0850 229° Southwest 342 394 28,000  Level Washington Center
09:07AM 37.8636 -79.1639 226° Southwest 347 399 28,000  Level Washington Center
09:08AM 37.8003 -79.2528 228° Southwest 347 399 28,000  Level Washington Center
09:09AM 37.7350 -79.3442 228° Southwest 347 399 28,000  Level Washington Center
09:10AM 37.6611 -79.4403 226° Southwest 352 405 28,000  Level Washington Center
09:11AM 37.6019 -79.5211 227° Southwest 357 411 28,000  Level Washington Center
09:12AM 37.5300 -79.6194 227° Southwest 357 411 28,000  Level Washington Center
09:13AM 37.4642 -79.7128 228° Southwest 357 411 28,000  Level Washington Center
09:14AM 37.4139 -79.7833 228° Southwest 365 420 28,000  Level Washington Center
09:15AM 37.3347 -79.8914 227° Southwest 370 426 28,000  Level Washington Center
09:17AM 37.1614 -80.1244 227° Southwest 344 396 28,000  Level Atlanta Center
09:18AM 37.0853 -80.2219 226° Southwest 349 402 28,000  Level Atlanta Center
09:19AM 37.0172 -80.3136 227° Southwest 354 407 28,000  Level Atlanta Center
09:20AM 36.9492 -80.4078 228° Southwest 359 413 28,000  Level Atlanta Center
09:21AM 36.8789 -80.4992 226° Southwest 359 413 28,000  Level Atlanta Center
09:22AM 36.8106 -80.5906 227° Southwest 359 413 28,000  Level Atlanta Center
09:23AM 36.7403 -80.6842 227° Southwest 359 413 28,000  Level Atlanta Center
09:24AM 36.6719 -80.7778 228° Southwest 359 413 28,000  Level Atlanta Center
09:25AM 36.5992 -80.8711 226° Southwest 369 425 28,000  Level Atlanta Center
09:26AM 36.5267 -80.9669 227° Southwest 374 430 28,000  Level Atlanta Center
09:27AM 36.4561 -81.0625 227° Southwest 379 436 28,000  Level Atlanta Center
09:28AM 36.3833 -81.1581 227° Southwest 379 436 28,000  Level Atlanta Center
09:29AM 36.3103 -81.2536 227° Southwest 379 436 28,000  Level Atlanta Center
09:30AM 36.2394 -81.3486 227° Southwest 384 442 28,000  Level Atlanta Center
09:31AM 36.1664 -81.4411 226° Southwest 384 442 28,000  Level Atlanta Center
09:32AM 36.0975 -81.5358 228° Southwest 377 434 28,000  Level Atlanta Center
09:33AM 36.0219 -81.6281 225° Southwest 377 434 28,000  Level Atlanta Center
09:34AM 35.9489 -81.7250 227° Southwest 383 441 28,000  Level Atlanta Center
09:35AM 35.8817 -81.8142 227° Southwest 378 435 28,000  Level Atlanta Center
09:36AM 35.8081 -81.9058 225° Southwest 373 429 28,000  Level Atlanta Center
09:37AM 35.7431 -81.9944 228° Southwest 373 429 28,000  Level Atlanta Center
09:38AM 35.6692 -82.0831 224° Southwest 368 423 28,000  Level Atlanta Center
09:39AM 35.5997 -82.1692 225° Southwest 368 423 28,000  Level Atlanta Center
09:40AM 35.5300 -82.2600 227° Southwest 362 417 28,000 -300 Level Atlanta Center
09:41AM 35.4583 -82.3508 226° Southwest 362 417 27,400 -840 Descending Atlanta Center
09:42AM 35.3844 -82.4417 225° Southwest 367 422 26,400 -1,020 Descending Atlanta Center
09:43AM 35.3106 -82.5347 226° Southwest 372 428 25,400 -1,020 Descending Atlanta Center
09:44AM 35.2367 -82.6275 226° Southwest 384 442 24,400 -720 Descending Atlanta Center
09:45AM 35.1625 -82.7203 226° Southwest 384 442 24,000 -240 Descending Atlanta Center
09:46AM 35.0842 -82.8128 224° Southwest 384 442 24,000  Level Atlanta Center
09:47AM 35.0078 -82.9053 225° Southwest 384 442 24,000  Level Atlanta Center
09:48AM 34.9250 -82.9900 220° Southwest 390 449 24,000  Level Atlanta Center
09:49AM 34.8361 -83.0694 216° Southwest 396 456 24,000  Level Atlanta Center
09:50AM 34.7636 -83.1514 223° Southwest 395 455 24,000  Level Atlanta Center
09:51AM 34.6828 -83.2381 221° Southwest 403 464 24,000  Level Atlanta Center
09:52AM 34.5956 -83.3247 219° Southwest 403 464 24,000 -60 Level Atlanta Center
09:53AM 34.5128 -83.4086 220° Southwest 398 458 23,900 -1,020 Descending Atlanta Center
09:54AM 34.4275 -83.4947 220° Southwest 398 458 22,000 -2,400 Descending Atlanta Center
09:55AM 34.3464 -83.5808 221° Southwest 398 458 19,200 -2,700 Descending Atlanta Center
09:56AM 34.2569 -83.6694 219° Southwest 393 452 16,700 -2,820 Descending Atlanta Center
09:57AM 34.1781 -83.7500 220° Southwest 388 447 13,600 -2,400 Descending Atlanta Center
09:58AM 34.0989 -83.8281 219° Southwest 379 436 11,900 -960 Descending Atlanta Center
09:59AM 34.0300 -83.8983 220° Southwest 353 406 11,700 -720 Descending Atlanta Center
10:00AM 33.9675 -83.9586 219° Southwest 316 364 10,500 -1,380 Descending Atlanta Center
10:01AM 33.9069 -84.0189 220° Southwest 294 338 9,000 -1,080 Descending Atlanta Center
10:02AM 33.8403 -84.0664 211° Southwest 294 338 8,400 -900 Descending Atlanta Center
10:03AM 33.7692 -84.0864 193° South 283 326 7,300 -1,440 Descending Atlanta Center
10:04AM 33.6961 -84.1086 194° South 283 326 5,600 -1,200 Descending Atlanta Center
10:05AM 33.6586 -84.1661 232° Southwest 235 270 5,000 -600 Descending Atlanta Center
10:06AM 33.6481 -84.2136 255° West 171 197 4,500 -780 Descending Atlanta Center
10:07AM 33.6500 -84.2833 272° West 150 173 3,300 -1,020 Descending Atlanta TRACON
10:08AM 33.6500 -84.3333 270° West 160 184 2,400 -900 Descending Atlanta TRACON
10:09AM 33.6500 -84.3667 270° West 139 160 1,700 -780 Descending Atlanta TRACON
10:11AM 33.6367 -84.4279 270° West  Level Estimated
10:18AM 33.6367 -84.4279 103° East  Level Estimated
10:19AM 33.6367 -84.4279 103° East  Level Estimated